createdAt,value
2018-06-04T00:01:44.412Z,790.37
2018-06-04T00:04:21.838Z,816.97
2018-06-04T00:07:01.179Z,964.70
2018-06-04T00:09:38.335Z,999.90
2018-06-04T00:12:18.440Z,999.90
2018-06-04T00:14:57.400Z,999.90
2018-06-04T00:17:35.891Z,999.90
2018-06-04T00:20:16.554Z,999.90
2018-06-04T00:22:54.897Z,999.90
2018-06-04T00:25:34.117Z,999.90
2018-06-04T00:28:13.535Z,999.90
2018-06-04T00:30:52.773Z,999.90
2018-06-04T00:33:32.338Z,999.90
2018-06-04T00:36:10.771Z,999.90
2018-06-04T00:38:48.954Z,999.90
2018-06-04T00:41:27.897Z,999.90
2018-06-04T00:44:07.139Z,999.90
2018-06-04T00:46:45.999Z,999.90
2018-06-04T00:49:25.272Z,999.90
2018-06-04T00:52:04.150Z,999.90
2018-06-04T00:54:43.249Z,999.90
2018-06-04T00:57:23.391Z,999.90
2018-06-04T01:00:01.815Z,999.90
2018-06-04T01:02:41.638Z,999.90
2018-06-04T01:05:21.235Z,999.90
2018-06-04T01:08:01.330Z,999.90
2018-06-04T01:10:39.932Z,999.90
2018-06-04T01:13:21.411Z,999.90
2018-06-04T01:16:00.036Z,999.90
2018-06-04T01:18:38.381Z,999.90
2018-06-04T01:21:16.852Z,999.90
2018-06-04T01:23:55.693Z,999.90
2018-06-04T01:26:34.236Z,999.90
2018-06-04T01:29:13.519Z,999.90
2018-06-04T01:31:52.475Z,999.90
2018-06-04T01:34:32.253Z,999.90
2018-06-04T01:37:11.574Z,999.90
2018-06-04T01:39:50.254Z,999.90
2018-06-04T01:42:31.055Z,999.90
2018-06-04T01:45:09.850Z,999.90
2018-06-04T01:47:47.954Z,999.90
2018-06-04T01:50:26.233Z,999.90
2018-06-04T01:53:06.178Z,999.90
2018-06-04T01:55:45.058Z,999.90
2018-06-04T03:06:38.563Z,914.97
2018-06-04T03:09:17.761Z,898.60
2018-06-04T03:12:02.000Z,999.90
2018-06-04T03:14:42.105Z,953.37
2018-06-04T03:17:21.524Z,999.90
2018-06-04T03:20:00.860Z,999.90
2018-06-04T03:22:40.860Z,966.87
2018-06-04T03:25:21.023Z,909.87
2018-06-04T03:27:59.243Z,976.13
2018-06-04T03:30:37.803Z,999.90
2018-06-04T03:33:19.726Z,999.90
2018-06-04T03:35:59.760Z,999.90
2018-06-04T03:38:41.825Z,999.90
2018-06-04T03:41:21.942Z,999.90
2018-06-04T03:44:02.169Z,997.20
2018-06-04T03:46:41.266Z,993.40
2018-06-04T03:49:23.746Z,971.50
2018-06-04T03:52:02.780Z,981.67
2018-06-04T03:54:44.599Z,932.20
2018-06-04T03:57:28.064Z,844.77
2018-06-04T04:00:09.978Z,932.90
2018-06-04T04:02:49.611Z,999.63
2018-06-04T04:05:29.762Z,967.60
2018-06-04T04:08:08.818Z,849.80
2018-06-04T05:22:12.047Z,662.23
2018-06-04T05:24:54.624Z,583.80
2018-06-04T05:27:34.987Z,566.87
2018-06-04T05:30:16.529Z,514.80
2018-06-04T05:33:00.381Z,553.93
2018-06-04T05:35:49.624Z,587.83
2018-06-04T05:38:31.850Z,576.40
2018-06-04T05:41:17.103Z,557.93
2018-06-04T05:43:59.926Z,523.50
2018-06-04T05:46:38.703Z,495.27
2018-06-04T05:49:20.101Z,322.73
2018-06-04T05:51:58.589Z,336.80
2018-06-04T05:54:38.546Z,999.90
2018-06-04T05:57:17.224Z,751.13
2018-06-04T05:59:59.790Z,255.63
2018-06-04T06:02:42.267Z,832.33
2018-06-04T06:05:28.111Z,798.13
2018-06-04T06:08:09.270Z,473.90
2018-06-04T06:10:49.965Z,999.90
2018-06-04T06:13:30.548Z,999.90
2018-06-04T06:16:12.753Z,999.90
2018-06-04T06:18:50.768Z,999.90
2018-06-04T06:21:28.231Z,999.90
2018-06-04T06:24:09.488Z,999.90
2018-06-04T06:26:48.747Z,661.03
2018-06-04T06:29:28.044Z,540.63
2018-06-04T06:32:06.988Z,999.90
2018-06-04T06:34:45.986Z,820.93
2018-06-04T06:37:25.323Z,999.90
2018-06-04T06:40:05.649Z,999.90
2018-06-04T06:42:47.207Z,999.90
2018-06-04T06:45:27.024Z,999.90
2018-06-04T06:48:08.031Z,999.90
2018-06-04T06:50:49.276Z,999.90
2018-06-04T06:53:28.384Z,868.20
2018-06-04T06:56:10.087Z,675.60
2018-06-04T06:58:52.166Z,923.37
2018-06-04T07:01:30.971Z,179.50
2018-06-04T07:04:09.567Z,180.95
2018-06-04T07:06:54.747Z,178.23
2018-06-04T07:09:33.791Z,87.78
2018-06-04T07:12:12.104Z,74.70
2018-06-04T07:14:52.823Z,58.30
2018-06-04T07:17:34.072Z,81.82
2018-06-04T07:20:14.866Z,94.03
2018-06-04T07:22:55.608Z,130.78
2018-06-04T07:25:41.988Z,162.60
2018-06-04T07:28:22.522Z,152.05
2018-06-04T07:31:03.315Z,193.40
2018-06-04T07:33:44.128Z,210.02
2018-06-04T07:36:28.926Z,231.25
2018-06-04T07:39:12.568Z,192.50
2018-06-04T07:41:51.008Z,198.43
2018-06-04T07:44:32.494Z,209.85
2018-06-04T07:47:20.110Z,206.55
2018-06-04T07:49:58.294Z,199.57
2018-06-04T07:52:37.126Z,266.45
2018-06-04T07:55:19.933Z,267.25
2018-06-04T07:58:00.667Z,274.70
2018-06-04T08:00:45.691Z,277.13
2018-06-04T08:03:23.984Z,289.65
2018-06-04T08:06:03.745Z,294.02
2018-06-04T08:08:43.243Z,292.13
2018-06-04T08:11:23.130Z,326.62
2018-06-04T08:14:01.452Z,328.50
2018-06-04T08:16:39.786Z,351.73
2018-06-04T08:19:19.062Z,309.95
2018-06-04T08:22:01.090Z,337.38
2018-06-04T08:24:40.974Z,305.30
2018-06-04T08:27:19.884Z,368.80
2018-06-04T08:30:08.511Z,450.75
2018-06-04T08:32:46.523Z,530.03
2018-06-04T08:35:24.547Z,523.52
2018-06-04T08:38:02.545Z,531.95
2018-06-04T08:40:41.587Z,529.45
2018-06-04T08:43:26.484Z,515.65
2018-06-04T08:46:05.194Z,436.08
2018-06-04T08:48:49.070Z,324.85
2018-06-04T08:51:31.667Z,224.67
2018-06-04T08:54:16.128Z,244.03
2018-06-04T08:56:58.550Z,263.55
2018-06-04T08:59:48.868Z,209.87
2018-06-04T09:02:30.487Z,270.57
2018-06-04T09:05:15.550Z,253.77
2018-06-04T09:07:55.652Z,262.30
2018-06-04T09:10:38.413Z,262.48
2018-06-04T09:13:21.845Z,163.25
2018-06-04T09:16:01.407Z,153.35
2018-06-04T09:18:43.029Z,102.80
2018-06-04T09:21:24.807Z,198.65
2018-06-04T09:24:01.764Z,173.47
2018-06-04T09:26:42.708Z,121.82
2018-06-04T09:29:24.107Z,127.53
2018-06-04T09:32:04.448Z,155.87
2018-06-04T09:34:42.986Z,152.97
2018-06-04T09:37:25.465Z,113.45
2018-06-04T09:40:08.452Z,117.53
2018-06-04T09:42:55.729Z,105.32
2018-06-04T09:45:35.691Z,122.35
2018-06-04T09:48:17.154Z,104.35
2018-06-04T09:50:59.228Z,142.43
2018-06-04T09:53:43.585Z,145.80
2018-06-04T09:56:23.829Z,149.82
2018-06-04T09:59:06.889Z,182.07
2018-06-04T10:01:50.244Z,172.80
2018-06-04T10:04:31.448Z,160.67
2018-06-04T10:07:12.572Z,167.28
2018-06-04T10:09:50.480Z,198.50
2018-06-04T10:12:36.004Z,141.85
2018-06-04T10:15:18.324Z,122.80
2018-06-04T10:17:56.869Z,140.37
2018-06-04T10:20:37.582Z,179.10
2018-06-04T10:23:16.511Z,140.80
2018-06-04T10:26:04.327Z,154.87
2018-06-04T10:28:45.488Z,201.35
2018-06-04T10:31:30.443Z,235.50
2018-06-04T10:34:15.205Z,279.95
2018-06-04T10:37:00.107Z,419.30
2018-06-04T10:39:38.388Z,452.05
2018-06-04T10:42:21.784Z,340.85
2018-06-04T10:45:10.045Z,315.65
2018-06-04T10:47:53.046Z,392.43
2018-06-04T10:50:35.208Z,255.90
2018-06-04T10:53:20.363Z,178.50
2018-06-04T10:56:01.447Z,160.48
2018-06-04T10:58:42.905Z,121.50
2018-06-04T11:01:23.525Z,113.28
2018-06-04T11:04:01.705Z,107.75
2018-06-04T11:06:45.006Z,83.75
2018-06-04T11:09:23.264Z,155.20
2018-06-04T11:12:02.769Z,85.28
2018-06-04T11:14:42.906Z,120.90
2018-06-04T11:17:25.750Z,65.40
2018-06-04T11:20:10.548Z,131.43
2018-06-04T11:22:50.090Z,140.05
2018-06-04T11:25:34.989Z,137.32
2018-06-04T11:28:14.031Z,157.60
2018-06-04T11:30:52.027Z,195.00
2018-06-04T12:50:53.394Z,230.07
2018-06-04T12:53:36.240Z,272.25
2018-06-04T12:56:17.259Z,270.70
2018-06-04T12:58:55.896Z,191.62
2018-06-04T13:01:40.052Z,266.52
2018-06-04T13:04:21.458Z,324.27
2018-06-04T13:07:01.632Z,253.27
2018-06-04T13:09:44.939Z,274.88
2018-06-04T13:12:24.452Z,297.98
2018-06-04T13:15:06.335Z,320.40
2018-06-04T13:17:45.250Z,296.25
2018-06-04T13:20:32.278Z,269.18
2018-06-04T13:23:11.532Z,240.15
2018-06-04T13:25:51.790Z,227.65
2018-06-04T14:58:04.569Z,91.85
2018-06-04T15:00:46.840Z,100.78
2018-06-04T15:03:32.495Z,112.95
2018-06-04T15:06:11.080Z,150.40
2018-06-04T15:08:52.358Z,125.20
2018-06-04T15:11:29.854Z,143.35
2018-06-04T15:14:11.979Z,164.55
2018-06-04T15:16:53.759Z,201.02
2018-06-04T15:19:34.632Z,185.25
2018-06-04T15:22:18.913Z,202.72
2018-06-04T15:24:59.836Z,195.30
2018-06-04T16:39:04.427Z,54.55
2018-06-04T16:41:44.747Z,47.45
2018-06-04T16:44:24.800Z,66.82
2018-06-04T16:47:06.602Z,65.83
2018-06-04T16:49:47.461Z,70.22
2018-06-04T16:52:25.962Z,50.38
2018-06-04T16:55:12.460Z,57.93
2018-06-04T16:57:54.805Z,86.50
2018-06-04T17:00:40.142Z,58.02
2018-06-04T17:03:17.758Z,86.78
2018-06-04T17:06:06.379Z,81.53
2018-06-04T17:08:47.782Z,58.38
2018-06-04T17:11:29.383Z,73.90
2018-06-04T17:14:19.365Z,51.45
2018-06-04T17:16:57.461Z,83.58
2018-06-04T17:19:38.505Z,92.33
2018-06-04T17:22:22.757Z,73.35
2018-06-04T17:25:03.002Z,81.87
2018-06-04T17:27:46.120Z,64.65
2018-06-04T17:30:25.720Z,78.37
2018-06-04T17:33:07.881Z,84.13
2018-06-04T17:35:50.867Z,51.48
2018-06-04T17:38:32.579Z,62.08
2018-06-04T17:41:10.490Z,71.22
2018-06-04T17:43:48.119Z,175.05
2018-06-04T17:46:30.044Z,82.22
2018-06-04T19:03:46.248Z,575.80
2018-06-04T19:06:32.446Z,594.80
2018-06-04T19:09:17.476Z,596.55
2018-06-04T19:11:58.337Z,607.37
2018-06-04T19:14:40.739Z,579.07
2018-06-04T20:43:58.041Z,128.20
2018-06-04T20:46:36.455Z,191.97
2018-06-04T20:49:14.853Z,166.03
2018-06-04T20:51:52.404Z,154.17
2018-06-04T20:54:31.354Z,219.10
2018-06-04T20:57:11.394Z,105.23
2018-06-04T20:59:49.571Z,145.20
2018-06-04T21:02:32.275Z,142.13
2018-06-04T21:05:11.651Z,178.47
2018-06-04T21:07:51.732Z,278.37
2018-06-04T21:10:31.793Z,141.73
2018-06-04T21:13:09.773Z,174.13
2018-06-04T21:15:49.233Z,204.83
2018-06-04T21:18:28.795Z,226.60
2018-06-04T21:21:07.435Z,432.53
2018-06-04T21:23:45.954Z,365.13
2018-06-04T21:26:22.953Z,410.90
2018-06-04T21:29:02.014Z,533.50
2018-06-04T21:31:43.457Z,530.40
2018-06-04T21:34:23.679Z,847.43
2018-06-04T21:37:01.234Z,943.90
2018-06-04T21:39:40.234Z,975.67
2018-06-04T21:42:19.134Z,959.30
2018-06-04T21:44:59.576Z,976.70
2018-06-04T21:47:36.755Z,994.33
2018-06-04T22:33:03.772Z,494.93
2018-06-04T22:35:42.171Z,605.37
2018-06-04T22:38:23.138Z,491.67
2018-06-04T22:41:02.449Z,618.20
2018-06-04T22:43:41.175Z,813.27
2018-06-04T22:46:20.815Z,826.93
2018-06-04T22:48:59.470Z,999.90
2018-06-04T22:51:38.230Z,999.90
2018-06-04T22:54:17.798Z,999.90
2018-06-04T22:56:57.737Z,999.90
2018-06-04T22:59:37.180Z,999.90
2018-06-04T23:02:16.690Z,999.90
2018-06-04T23:04:56.771Z,999.90
2018-06-04T23:07:39.701Z,999.90
2018-06-04T23:10:16.793Z,999.90
2018-06-04T23:12:58.674Z,999.90
2018-06-04T23:15:38.735Z,999.90
2018-06-04T23:18:17.633Z,999.90
2018-06-04T23:20:56.291Z,999.90
2018-06-04T23:23:35.511Z,999.90
2018-06-04T23:26:14.773Z,999.90
2018-06-04T23:28:55.715Z,999.90
2018-06-04T23:31:35.633Z,999.90
2018-06-04T23:34:14.335Z,999.90
2018-06-04T23:36:52.900Z,999.90
2018-06-04T23:39:30.013Z,999.90
2018-06-04T23:42:10.540Z,999.90
2018-06-04T23:44:48.392Z,999.90
2018-06-04T23:47:27.633Z,999.90
2018-06-04T23:50:07.629Z,999.90
2018-06-04T23:52:47.016Z,999.90
2018-06-04T23:55:27.334Z,999.90
2018-06-04T23:58:06.772Z,999.90
